Time;durP1;ratioP1;P1;durP2;ratioP2;P2;SDS_P1;SDS_P2;PMS_P1;PMS_P2;Temp;Humidity;BMP_temperature;BMP_pressure;BME280_temperature;BME280_humidity;BME280_pressure;Samples;Min_cycle;Max_cycle;Signal;HPM_P1;HPM_P2
2023/12/08 00:00:31;;;;;;;3.73;3.53;;;;;;;4.96;99.51;99539.88;5071296;28;20702;-74
2023/12/08 00:02:57;;;;;;;3.80;3.60;;;;;;;5.02;99.81;99546.28;5071809;28;20188;-75
2023/12/08 00:05:25;;;;;;;4.50;4.20;;;;;;;4.96;99.75;99531.13;5071790;28;20200;-75
2023/12/08 00:07:52;;;;;;;4.93;3.97;;;;;;;4.98;100.00;99540.53;5071579;28;20192;-75
2023/12/08 00:10:19;;;;;;;4.23;4.03;;;;;;;4.98;99.89;99540.53;5072911;28;20241;-75
2023/12/08 00:12:45;;;;;;;4.17;3.97;;;;;;;4.97;99.93;99544.16;5075529;28;20192;-75
2023/12/08 00:15:11;;;;;;;4.87;4.57;;;;;;;4.92;100.00;99538.53;5075290;28;20241;-75
2023/12/08 00:17:38;;;;;;;5.20;4.90;;;;;;;4.85;100.00;99534.88;5075695;28;20192;-74
2023/12/08 00:20:06;;;;;;;4.67;4.30;;;;;;;4.88;100.00;99550.38;5075246;28;20206;-75
2023/12/08 00:22:34;;;;;;;3.90;3.70;;;;;;;4.85;100.00;99542.78;5075643;28;20191;-74
2023/12/08 00:25:01;;;;;;;4.20;3.97;;;;;;;4.75;100.00;99544.69;5075120;28;20804;-74
2023/12/08 00:27:28;;;;;;;4.20;4.00;;;;;;;4.86;100.00;99549.69;5075177;28;20732;-74
2023/12/08 00:29:54;;;;;;;4.67;4.37;;;;;;;4.75;100.00;99547.31;5075202;28;20296;-75
2023/12/08 00:32:21;;;;;;;4.87;4.50;;;;;;;4.60;100.00;99530.50;5075180;28;20180;-75
2023/12/08 00:34:48;;;;;;;5.33;5.03;;;;;;;4.75;100.00;99541.25;5075277;28;20282;-75
2023/12/08 00:37:15;;;;;;;4.83;4.53;;;;;;;4.70;100.00;99543.53;5075284;28;20195;-75
2023/12/08 00:39:43;;;;;;;5.03;4.73;;;;;;;4.66;100.00;99537.75;5075239;28;20199;-75
2023/12/08 00:42:09;;;;;;;5.47;5.17;;;;;;;4.71;100.00;99538.09;5075177;28;20272;-75
2023/12/08 00:44:37;;;;;;;5.60;5.20;;;;;;;4.71;100.00;99537.28;5075115;28;20188;-75
2023/12/08 00:47:04;;;;;;;5.70;5.30;;;;;;;4.71;100.00;99538.09;5074792;28;20196;-75
2023/12/08 00:49:31;;;;;;;6.10;5.77;;;;;;;4.66;100.00;99540.38;5074685;28;20787;-74
2023/12/08 00:51:58;;;;;;;6.03;5.63;;;;;;;4.79;100.00;99546.03;5074660;28;20199;-74
2023/12/08 00:54:24;;;;;;;5.20;4.90;;;;;;;4.71;100.00;99553.88;5074965;28;20200;-74
2023/12/08 00:56:52;;;;;;;5.30;4.90;;;;;;;4.74;100.00;99553.56;5075031;28;20188;-74
2023/12/08 00:59:19;;;;;;;5.53;5.13;;;;;;;4.80;99.74;99557.38;5074878;28;20200;-74
2023/12/08 01:01:46;;;;;;;5.97;5.57;;;;;;;4.74;100.00;99561.47;5074839;28;20278;-73
2023/12/08 01:04:13;;;;;;;5.23;4.83;;;;;;;4.79;100.00;99561.81;5074541;28;20211;-73
2023/12/08 01:06:39;;;;;;;5.13;4.83;;;;;;;4.74;99.73;99553.56;5074688;28;20192;-73
2023/12/08 01:09:06;;;;;;;4.73;4.43;;;;;;;4.81;99.32;99553.75;5074366;28;20273;-73
2023/12/08 01:11:33;;;;;;;5.33;4.93;;;;;;;4.75;98.30;99552.59;5074545;28;20195;-72
2023/12/08 01:14:01;;;;;;;5.40;5.00;;;;;;;4.78;98.03;99552.28;5074665;28;20226;-72
2023/12/08 01:16:28;;;;;;;5.20;4.90;;;;;;;4.87;97.85;99553.97;5074421;28;20253;-72
2023/12/08 01:18:54;;;;;;;5.37;4.97;;;;;;;4.97;97.73;99559.94;5074581;28;20200;-72
2023/12/08 01:21:21;;;;;;;4.93;4.70;;;;;;;4.95;97.22;99551.34;5073065;28;20195;-73
2023/12/08 01:23:48;;;;;;;4.57;4.27;;;;;;;4.93;96.59;99547.25;5074134;28;20197;-73
2023/12/08 01:26:14;;;;;;;5.33;5.03;;;;;;;4.90;96.07;99529.97;5074443;28;20197;-72
2023/12/08 01:28:41;;;;;;;5.70;5.40;;;;;;;5.05;95.23;99552.06;5074255;28;20281;-73
2023/12/08 01:31:09;;;;;;;4.20;4.00;;;;;;;5.17;94.54;99550.78;5073627;28;20231;-72
2023/12/08 01:33:36;;;;;;;4.83;4.63;;;;;;;5.23;93.59;99544.88;5074452;28;20258;-73
2023/12/08 01:36:03;;;;;;;5.27;4.77;;;;;;;5.33;93.18;99540.31;5069741;28;20200;-74
2023/12/08 01:38:30;;;;;;;4.90;4.50;;;;;;;5.32;93.05;99549.16;5054199;28;20246;-74
2023/12/08 01:40:57;;;;;;;4.70;4.40;;;;;;;5.34;92.63;99546.38;5054112;28;20192;-74
2023/12/08 01:43:23;;;;;;;4.23;3.93;;;;;;;5.35;92.19;99538.31;5054101;28;20199;-74
2023/12/08 01:45:51;;;;;;;4.70;4.50;;;;;;;5.35;92.43;99542.75;5054190;28;20196;-75
2023/12/08 01:48:19;;;;;;;4.53;4.10;;;;;;;5.34;91.57;99546.38;5053994;28;20192;-76
2023/12/08 01:50:46;;;;;;;4.60;4.40;;;;;;;5.32;91.32;99537.81;5053377;28;20711;-74
2023/12/08 01:53:13;;;;;;;4.70;4.40;;;;;;;5.28;92.12;99542.56;5053597;28;20714;-73
2023/12/08 01:55:39;;;;;;;5.13;4.83;;;;;;;5.19;92.07;99542.75;5053448;28;20192;-74
2023/12/08 01:58:07;;;;;;;4.43;4.23;;;;;;;5.06;92.78;99543.19;5053951;28;20200;-72
2023/12/08 02:00:34;;;;;;;5.27;4.97;;;;;;;5.12;93.46;99541.72;5053538;28;20200;-75
2023/12/08 02:03:01;;;;;;;4.90;4.57;;;;;;;5.18;92.69;99546.31;5053428;28;20197;-74
2023/12/08 02:05:32;;;;;;;5.33;5.00;;;;;;;5.16;93.15;99548.31;5053657;28;20196;-74
2023/12/08 02:07:59;;;;;;;5.03;4.73;;;;;;;5.14;93.79;99545.84;5053300;28;20192;-75
2023/12/08 02:10:26;;;;;;;6.17;5.73;;;;;;;4.97;93.85;99520.47;5053279;28;20220;-76
2023/12/08 02:12:52;;;;;;;5.60;5.30;;;;;;;4.95;94.31;99546.09;5053535;28;20200;-75
2023/12/08 02:15:19;;;;;;;5.10;4.80;;;;;;;4.89;94.37;99540.66;5053222;28;20334;-75
2023/12/08 02:17:47;;;;;;;5.80;5.17;;;;;;;4.94;95.21;99551.50;5053307;28;20192;-74
2023/12/08 02:20:14;;;;;;;5.43;5.13;;;;;;;4.75;94.85;99542.06;5053415;28;20212;-75
2023/12/08 02:22:42;;;;;;;5.20;4.90;;;;;;;4.95;94.97;99550.56;5053343;28;20196;-75
2023/12/08 02:25:10;;;;;;;7.37;6.77;;;;;;;4.96;95.13;99547.78;5053060;28;20658;-76
2023/12/08 02:27:37;;;;;;;7.10;6.40;;;;;;;4.88;94.79;99558.25;5067125;28;20253;-76
2023/12/08 02:30:05;;;;;;;6.73;6.23;;;;;;;4.93;95.11;99561.22;5072049;28;20293;-76
2023/12/08 02:32:36;;;;;;;6.73;6.27;;;;;;;4.96;94.42;99557.47;5072376;28;20625;-76
2023/12/08 02:35:05;;;;;;;6.63;6.23;;;;;;;5.03;94.96;99546.13;5073327;28;20199;-76
2023/12/08 02:37:36;;;;;;;6.93;6.50;;;;;;;5.09;94.93;99553.41;5072814;28;20616;-76
2023/12/08 02:40:06;;;;;;;6.40;6.00;;;;;;;5.03;94.64;99546.13;5072793;28;20192;-76
2023/12/08 02:42:35;;;;;;;5.97;5.57;;;;;;;4.92;94.67;99556.97;5072510;28;20249;-75
2023/12/08 02:45:01;;;;;;;6.90;6.37;;;;;;;4.88;95.09;99560.06;5072990;28;20192;-74
2023/12/08 02:47:28;;;;;;;7.17;6.50;;;;;;;4.89;94.90;99552.00;5072765;28;20196;-75
2023/12/08 02:49:55;;;;;;;7.17;6.67;;;;;;;4.92;95.75;99556.13;5072748;28;20283;-75
2023/12/08 02:52:22;;;;;;;6.50;6.10;;;;;;;4.90;95.36;99558.91;5072759;28;20196;-75
2023/12/08 02:54:49;;;;;;;6.30;5.80;;;;;;;4.93;95.31;99560.41;5072930;28;20202;-75
2023/12/08 02:57:15;;;;;;;6.80;6.30;;;;;;;4.92;94.84;99564.03;5072590;28;20192;-76
2023/12/08 02:59:43;;;;;;;6.67;6.27;;;;;;;4.91;95.00;99554.47;5072395;28;20242;-76
2023/12/08 03:02:10;;;;;;;7.30;6.70;;;;;;;4.85;95.85;99563.84;5072112;28;20192;-76
2023/12/08 03:04:37;;;;;;;7.27;6.67;;;;;;;4.81;96.32;99559.88;5072201;28;20656;-75
2023/12/08 03:07:04;;;;;;;6.37;5.93;;;;;;;4.80;95.62;99566.13;5072347;28;20249;-75
2023/12/08 03:09:30;;;;;;;7.03;6.53;;;;;;;4.85;95.70;99561.19;5072299;28;20219;-75
2023/12/08 03:11:57;;;;;;;6.80;6.30;;;;;;;4.90;95.60;99564.19;5072398;28;20200;-76
2023/12/08 03:14:24;;;;;;;6.73;6.23;;;;;;;4.85;95.92;99561.19;5072459;28;20192;-75
2023/12/08 03:16:52;;;;;;;7.27;6.77;;;;;;;4.87;95.82;99564.47;5072406;28;20269;-74
2023/12/08 03:19:19;;;;;;;7.67;7.10;;;;;;;4.82;96.11;99558.88;5071870;28;20567;-74
2023/12/08 03:21:45;;;;;;;7.60;6.93;;;;;;;4.89;95.78;99556.44;5072119;28;20192;-74
2023/12/08 03:24:12;;;;;;;7.63;7.07;;;;;;;4.92;96.05;99561.38;5071857;28;20621;-74
2023/12/08 03:26:39;;;;;;;6.87;6.37;;;;;;;4.81;96.08;99564.28;5072062;28;20200;-74
2023/12/08 03:29:06;;;;;;;7.83;7.27;;;;;;;4.81;95.92;99566.94;5072212;28;20192;-74
2023/12/08 03:31:33;;;;;;;7.67;7.17;;;;;;;4.78;96.18;99554.91;5071605;28;20238;-76
2023/12/08 03:34:01;;;;;;;7.60;7.00;;;;;;;4.80;96.06;99568.75;5072062;28;20195;-75
2023/12/08 03:36:28;;;;;;;8.23;7.53;;;;;;;4.88;96.33;99566.16;5064014;28;20212;-75
2023/12/08 03:38:54;;;;;;;7.47;6.83;;;;;;;4.81;96.04;99566.94;5052016;28;20192;-75
2023/12/08 03:41:21;;;;;;;7.23;6.73;;;;;;;4.84;96.24;99561.34;5052016;28;20192;-75
2023/12/08 03:43:48;;;;;;;7.77;7.17;;;;;;;4.77;95.73;99557.69;5051808;28;20223;-75
2023/12/08 03:46:15;;;;;;;7.87;7.23;;;;;;;4.78;95.07;99557.53;5050852;28;20662;-75
2023/12/08 03:48:41;;;;;;;7.20;6.70;;;;;;;4.88;94.37;99560.91;5051813;28;20622;-75
2023/12/08 03:51:09;;;;;;;7.03;6.63;;;;;;;4.95;94.22;99551.34;5051834;28;20302;-75
2023/12/08 03:53:36;;;;;;;7.87;7.37;;;;;;;4.92;94.08;99549.06;5051465;28;20683;-75
2023/12/08 03:56:03;;;;;;;7.63;7.03;;;;;;;5.00;94.02;99558.78;5051926;28;20196;-75
2023/12/08 03:58:30;;;;;;;7.07;6.47;;;;;;;4.90;94.14;99553.66;5051341;28;20287;-74
2023/12/08 04:00:57;;;;;;;7.70;7.13;;;;;;;4.88;93.75;99533.75;5051742;28;20192;-74
2023/12/08 04:03:23;;;;;;;7.57;7.10;;;;;;;4.98;93.59;99544.94;5051264;28;20629;-73
2023/12/08 04:05:51;;;;;;;7.17;6.67;;;;;;;5.04;92.90;99555.69;5051770;28;20613;-73
2023/12/08 04:08:19;;;;;;;7.60;7.03;;;;;;;5.07;92.76;99544.03;5051282;28;20741;-74
2023/12/08 04:10:46;;;;;;;7.60;7.00;;;;;;;4.95;92.83;99550.56;5051516;28;20246;-74
2023/12/08 04:13:12;;;;;;;7.93;7.23;;;;;;;4.95;93.38;99551.34;5051666;28;20196;-75
2023/12/08 04:15:39;;;;;;;8.10;7.50;;;;;;;5.00;92.82;99546.47;5051697;28;20259;-75
2023/12/08 04:18:06;;;;;;;7.73;7.13;;;;;;;5.13;92.29;99560.00;5051614;28;20287;-75
2023/12/08 04:20:33;;;;;;;7.43;6.93;;;;;;;5.12;91.70;99561.00;5051245;28;20746;-75
2023/12/08 04:23:00;;;;;;;7.27;6.77;;;;;;;5.14;92.32;99556.38;5083671;28;20242;-77
2023/12/08 04:25:28;;;;;;;8.33;7.83;;;;;;;5.10;92.38;99562.94;5051504;28;20196;-77
2023/12/08 04:27:54;;;;;;;8.43;7.77;;;;;;;5.10;92.04;99555.03;5051636;28;20193;-77
2023/12/08 04:30:21;;;;;;;8.03;7.53;;;;;;;5.14;91.94;99558.16;5051247;28;20237;-76
2023/12/08 04:32:48;;;;;;;8.23;7.63;;;;;;;5.19;91.79;99556.72;5050155;28;20204;-77
2023/12/08 04:35:15;;;;;;;8.03;7.43;;;;;;;5.21;91.73;99562.66;5051107;28;20254;-76
2023/12/08 04:37:41;;;;;;;8.87;8.20;;;;;;;5.23;91.00;99560.66;5067761;28;20241;-75
2023/12/08 04:40:09;;;;;;;9.47;8.50;;;;;;;5.15;91.35;99562.47;5070943;28;20235;-76
2023/12/08 04:42:39;;;;;;;9.50;8.63;;;;;;;5.22;91.81;99572.19;5071394;28;20196;-75
2023/12/08 04:45:07;;;;;;;9.20;8.50;;;;;;;5.28;91.24;99568.09;5071135;28;20261;-75
2023/12/08 04:47:34;;;;;;;9.40;8.63;;;;;;;5.27;90.93;99571.72;5070859;28;20196;-75
2023/12/08 04:50:01;;;;;;;9.63;8.80;;;;;;;5.24;91.06;99572.84;5071054;28;20227;-75
2023/12/08 04:52:27;;;;;;;9.40;8.70;;;;;;;5.29;90.83;99573.22;5071047;28;20197;-76
2023/12/08 04:54:54;;;;;;;8.40;7.70;;;;;;;5.27;90.94;99567.25;5070736;28;20581;-74
2023/12/08 04:57:22;;;;;;;9.60;8.90;;;;;;;5.20;90.93;99555.72;5073563;28;20204;-73
2023/12/08 04:59:50;;;;;;;9.10;8.20;;;;;;;5.21;91.66;99567.09;5074633;28;20191;-73
2023/12/08 05:02:17;;;;;;;10.20;9.37;;;;;;;5.21;91.39;99557.38;5074488;28;20195;-73
2023/12/08 05:04:43;;;;;;;10.03;9.03;;;;;;;5.27;91.20;99562.00;5074273;28;20628;-74
2023/12/08 05:07:10;;;;;;;10.20;9.40;;;;;;;5.15;91.85;99557.22;5074251;28;20195;-74
2023/12/08 05:09:37;;;;;;;11.93;10.23;;;;;;;5.10;92.01;99570.84;5074370;28;20207;-74
2023/12/08 05:12:04;;;;;;;10.47;9.47;;;;;;;5.19;91.58;99575.13;5074399;28;20245;-74
2023/12/08 05:14:31;;;;;;;10.20;9.30;;;;;;;5.18;91.28;99573.50;5074555;28;20199;-75
2023/12/08 05:16:59;;;;;;;10.03;9.10;;;;;;;5.10;91.73;99570.84;5074603;28;20249;-77
2023/12/08 05:19:26;;;;;;;10.57;9.57;;;;;;;5.18;91.49;99576.13;5074485;28;20192;-77
2023/12/08 05:21:53;;;;;;;9.43;8.60;;;;;;;5.15;92.11;99567.75;5074463;28;20196;-77
2023/12/08 05:24:19;;;;;;;10.20;9.40;;;;;;;5.20;91.40;99579.41;5074067;28;20191;-78
2023/12/08 05:26:47;;;;;;;10.60;9.60;;;;;;;5.24;91.27;99577.31;5074308;28;20198;-76
2023/12/08 05:29:14;;;;;;;11.70;10.50;;;;;;;5.16;91.96;99578.09;5074362;28;20273;-75
2023/12/08 05:31:40;;;;;;;10.70;9.80;;;;;;;5.10;91.57;99570.84;5074466;28;20277;-75
2023/12/08 05:34:08;;;;;;;10.00;9.20;;;;;;;4.98;91.66;99566.84;5074141;28;20245;-75
2023/12/08 05:36:35;;;;;;;10.63;9.63;;;;;;;5.14;91.34;99576.59;5073867;28;20198;-76
2023/12/08 05:39:03;;;;;;;11.20;10.17;;;;;;;5.18;91.54;99575.28;5073638;28;20252;-77
2023/12/08 05:41:29;;;;;;;9.43;8.53;;;;;;;5.13;90.70;99590.75;5074066;28;20237;-77
2023/12/08 05:43:56;;;;;;;10.63;9.67;;;;;;;5.25;90.69;99579.78;5074437;28;20204;-76
2023/12/08 05:46:24;;;;;;;10.17;9.17;;;;;;;5.29;90.87;99591.66;5073928;28;20257;-75
2023/12/08 05:48:50;;;;;;;9.90;9.10;;;;;;;5.25;90.83;99590.31;5073930;28;20200;-75
2023/12/08 05:51:18;;;;;;;10.77;9.80;;;;;;;5.30;90.69;99593.28;5073598;28;20582;-75
2023/12/08 05:53:45;;;;;;;10.07;9.17;;;;;;;5.20;90.62;99579.41;5073742;28;20579;-75
2023/12/08 05:56:12;;;;;;;11.43;10.30;;;;;;;5.30;90.53;99588.00;5074068;28;20205;-75
2023/12/08 05:58:39;;;;;;;11.63;10.47;;;;;;;5.26;89.97;99576.16;5073861;28;20727;-75
2023/12/08 06:01:06;;;;;;;11.97;10.53;;;;;;;5.32;90.36;99595.75;5073635;28;20192;-77
2023/12/08 06:03:33;;;;;;;13.47;9.80;;;;;;;5.23;90.36;99589.63;5093154;28;20662;-76
2023/12/08 06:05:59;;;;;;;10.83;9.83;;;;;;;5.30;88.97;99595.06;5093851;28;20260;-76
2023/12/08 06:08:27;;;;;;;11.60;10.20;;;;;;;5.34;89.83;99599.88;5079415;28;20196;-76
2023/12/08 06:10:54;;;;;;;11.10;9.90;;;;;;;5.39;89.04;99609.91;5073405;28;20655;-77
2023/12/08 06:13:21;;;;;;;11.90;10.70;;;;;;;5.39;89.45;99607.28;5070619;28;20199;-76
2023/12/08 06:15:48;;;;;;;11.47;10.27;;;;;;;5.30;89.64;99610.88;5066517;28;20252;-76
2023/12/08 06:18:14;;;;;;;10.60;9.60;;;;;;;5.30;89.13;99614.34;5072603;28;20192;-77
2023/12/08 06:20:41;;;;;;;12.60;10.57;;;;;;;5.38;88.77;99619.66;5061459;28;20668;-76
2023/12/08 06:23:08;;;;;;;14.13;10.30;;;;;;;5.38;88.47;99622.28;5072418;28;20191;-76
2023/12/08 06:25:36;;;;;;;11.93;10.10;;;;;;;5.25;89.83;99626.34;5071929;28;20660;-77
2023/12/08 06:28:03;;;;;;;10.70;9.70;;;;;;;5.20;89.72;99624.16;5070367;28;20675;-77
2023/12/08 06:30:30;;;;;;;14.63;9.70;;;;;;;5.26;89.62;99633.25;5070431;28;20260;-77
2023/12/08 06:32:58;;;;;;;16.43;10.70;;;;;;;5.17;90.13;99628.94;5072260;28;20615;-77
2023/12/08 06:35:24;;;;;;;11.17;9.87;;;;;;;5.30;90.13;99638.06;5070793;28;20238;-74
2023/12/08 06:37:51;;;;;;;12.40;11.17;;;;;;;5.34;88.72;99641.19;5063174;28;20193;-76
2023/12/08 06:40:18;;;;;;;13.13;11.63;;;;;;;5.41;88.91;99648.31;5072328;28;20283;-76
2023/12/08 06:42:49;;;;;;;13.87;12.10;;;;;;;5.36;88.66;99649.75;5068553;28;20191;-76
2023/12/08 06:45:15;;;;;;;13.30;11.83;;;;;;;5.35;89.05;99648.09;5066608;28;20207;-77
2023/12/08 06:47:42;;;;;;;11.07;10.10;;;;;;;5.34;88.98;99647.28;5092189;28;20191;-77
2023/12/08 06:50:09;;;;;;;13.87;12.00;;;;;;;5.38;88.77;99645.97;5082329;28;20200;-76
2023/12/08 06:52:36;;;;;;;14.40;11.67;;;;;;;5.36;89.23;99644.50;5070627;28;20200;-67
2023/12/08 06:55:03;;;;;;;12.00;10.77;;;;;;;5.34;88.44;99641.19;5071830;28;20195;-67
2023/12/08 06:57:29;;;;;;;12.10;10.90;;;;;;;5.36;88.66;99645.28;5071398;28;20207;-67
2023/12/08 06:59:57;;;;;;;12.63;11.00;;;;;;;5.38;88.93;99648.63;5072672;28;20257;-67
2023/12/08 07:02:24;;;;;;;13.13;10.77;;;;;;;5.34;88.66;99642.00;5070820;28;20653;-66
2023/12/08 07:04:51;;;;;;;11.33;10.23;;;;;;;5.43;89.39;99642.84;5071161;28;20200;-66
2023/12/08 07:07:18;;;;;;;12.70;11.00;;;;;;;5.48;89.13;99646.66;5069728;28;20257;-65
2023/12/08 07:09:44;;;;;;;12.70;10.40;;;;;;;5.52;88.95;99644.56;5069323;28;20342;-65
2023/12/08 07:12:11;;;;;;;13.13;10.30;;;;;;;5.53;88.21;99652.28;5069269;28;20223;-68
2023/12/08 07:14:38;;;;;;;13.43;11.23;;;;;;;5.60;89.00;99642.75;5069527;28;20271;-70
2023/12/08 07:17:06;;;;;;;13.43;11.23;;;;;;;5.60;88.43;99637.47;5068158;28;20725;-71
2023/12/08 07:19:33;;;;;;;12.73;11.40;;;;;;;5.65;88.37;99645.72;5071141;28;20188;-71
2023/12/08 07:21:59;;;;;;;13.57;11.70;;;;;;;5.58;88.33;99654.44;5067457;28;20265;-71
2023/12/08 07:24:26;;;;;;;23.57;16.40;;;;;;;5.64;87.18;99659.06;5071499;28;20196;-70
2023/12/08 07:26:54;;;;;;;19.63;15.63;;;;;;;5.55;87.55;99660.00;5070875;28;20199;-76
2023/12/08 07:29:22;;;;;;;14.43;12.50;;;;;;;5.58;88.24;99654.44;5070446;28;20211;-70
2023/12/08 07:31:49;;;;;;;14.40;11.03;;;;;;;5.47;88.31;99663.47;5069641;28;20667;-72
2023/12/08 07:34:17;;;;;;;11.30;10.20;;;;;;;5.50;88.68;99663.16;5071275;28;20187;-71
2023/12/08 07:36:44;;;;;;;13.13;11.47;;;;;;;5.51;89.06;99664.78;5070600;28;20256;-68
2023/12/08 07:39:10;;;;;;;12.90;11.57;;;;;;;5.42;88.97;99660.47;5069790;28;20208;-70
2023/12/08 07:41:37;;;;;;;9.47;8.67;;;;;;;5.48;88.55;99670.38;5074672;28;20257;-70
2023/12/08 07:44:04;;;;;;;11.53;10.37;;;;;;;5.46;88.83;99672.34;5073818;28;20204;-70
2023/12/08 07:46:31;;;;;;;11.77;10.77;;;;;;;5.45;88.86;99675.13;5071125;28;20192;-70
2023/12/08 07:48:58;;;;;;;13.87;11.07;;;;;;;5.49;88.91;99672.03;5069297;28;20251;-74
2023/12/08 07:51:27;;;;;;;12.43;10.33;;;;;;;5.50;88.28;99667.56;5068433;28;20610;-72
2023/12/08 07:53:54;;;;;;;10.67;9.60;;;;;;;5.56;87.82;99678.31;5071573;28;20203;-71
2023/12/08 07:56:21;;;;;;;10.47;9.47;;;;;;;5.50;88.11;99673.69;5070989;28;20249;-71
2023/12/08 07:58:48;;;;;;;11.47;10.47;;;;;;;5.46;88.59;99677.63;5071003;28;20253;-71
2023/12/08 08:01:15;;;;;;;12.20;10.90;;;;;;;5.56;87.98;99680.94;5071121;28;20637;-71
2023/12/08 08:03:42;;;;;;;12.80;11.37;;;;;;;5.61;88.47;99683.91;5069743;28;20212;-75
2023/12/08 08:06:09;;;;;;;12.87;11.20;;;;;;;5.60;88.84;99676.19;5069920;28;20231;-71
2023/12/08 08:08:37;;;;;;;12.77;11.50;;;;;;;5.75;88.40;99680.69;5072826;28;20192;-71
2023/12/08 08:11:04;;;;;;;11.60;10.50;;;;;;;5.76;87.82;99677.03;5071374;28;20219;-71
2023/12/08 08:13:31;;;;;;;10.83;9.80;;;;;;;5.68;88.09;99692.84;5070591;28;20192;-71
2023/12/08 08:15:58;;;;;;;10.67;9.67;;;;;;;5.63;87.83;99689.03;5069601;28;20649;-71
2023/12/08 08:18:25;;;;;;;13.27;11.33;;;;;;;5.64;88.39;99686.22;5070592;28;20208;-73
2023/12/08 08:20:51;;;;;;;19.23;13.50;;;;;;;5.58;88.95;99689.53;5070445;28;20700;-70
2023/12/08 08:23:18;;;;;;;13.37;10.97;;;;;;;5.48;89.28;99690.63;5068952;28;20200;-71
2023/12/08 08:25:46;;;;;;;12.93;11.63;;;;;;;5.51;89.34;99696.41;5069276;28;20238;-72
2023/12/08 08:28:13;;;;;;;13.17;11.17;;;;;;;5.44;89.78;99687.47;5072361;28;20252;-71
2023/12/08 08:30:44;;;;;;;13.07;11.37;;;;;;;5.54;90.71;99698.72;5069326;28;20792;-69
2023/12/08 08:33:10;;;;;;;12.87;10.80;;;;;;;5.59;89.90;99692.97;5071658;28;20666;-72
2023/12/08 08:35:38;;;;;;;13.40;11.37;;;;;;;5.65;89.10;99698.41;5074054;28;20249;-71
2023/12/08 08:38:05;;;;;;;12.60;10.93;;;;;;;5.61;90.10;99686.53;5076811;28;20257;-69
2023/12/08 08:40:32;;;;;;;11.73;10.63;;;;;;;5.56;90.75;99691.47;5077579;28;20245;-72
2023/12/08 08:43:00;;;;;;;16.00;10.17;;;;;;;5.45;91.03;99691.78;5075448;28;20188;-69
2023/12/08 08:45:27;;;;;;;10.47;9.53;;;;;;;5.44;91.46;99695.38;5073926;28;20940;-70
2023/12/08 08:47:54;;;;;;;14.83;11.17;;;;;;;5.56;91.26;99694.09;5073927;28;20200;-69
2023/12/08 08:50:22;;;;;;;13.73;12.17;;;;;;;5.55;92.15;99687.19;5074746;28;20509;-69
2023/12/08 08:52:49;;;;;;;13.27;11.27;;;;;;;5.51;92.40;99688.50;5086319;28;20671;-71
2023/12/08 08:55:15;;;;;;;10.40;9.43;;;;;;;5.55;91.09;99681.94;5073851;28;20205;-71
2023/12/08 08:57:44;;;;;;;9.67;8.73;;;;;;;5.56;91.42;99691.47;5072810;28;20300;-70
2023/12/08 09:00:14;;;;;;;10.57;9.50;;;;;;;5.48;92.00;99691.44;5074409;28;20207;-71
2023/12/08 09:02:40;;;;;;;13.17;11.77;;;;;;;5.51;93.17;99690.28;5073673;28;20199;-71
2023/12/08 09:05:08;;;;;;;17.37;13.00;;;;;;;5.50;93.78;99681.59;5078991;28;20194;-72
2023/12/08 09:07:35;;;;;;;17.53;12.77;;;;;;;5.36;93.97;99682.16;5090123;28;20219;-71
2023/12/08 09:10:02;;;;;;;13.20;10.77;;;;;;;5.51;93.47;99683.22;5072761;28;20672;-70
2023/12/08 09:12:29;;;;;;;16.67;10.93;;;;;;;5.53;93.62;99689.19;5073005;28;20212;-70
2023/12/08 09:14:56;;;;;;;16.90;13.20;;;;;;;5.56;94.09;99688.84;5073064;28;20694;-79
2023/12/08 09:17:24;;;;;;;18.10;13.10;;;;;;;5.49;94.07;99682.56;5074312;28;20196;-71
2023/12/08 09:19:51;;;;;;;13.97;12.07;;;;;;;5.45;94.61;99680.41;5071497;28;20715;-74
2023/12/08 09:22:17;;;;;;;14.63;13.03;;;;;;;5.42;94.30;99665.75;5072960;28;20243;-71
2023/12/08 09:24:44;;;;;;;19.40;13.67;;;;;;;5.41;94.70;99671.16;5072545;28;20201;-70
2023/12/08 09:27:11;;;;;;;17.67;13.83;;;;;;;5.48;95.83;99664.28;5070245;28;20195;-72
2023/12/08 09:29:38;;;;;;;20.63;15.43;;;;;;;5.52;95.53;99666.44;5071793;28;20201;-73
2023/12/08 09:32:05;;;;;;;20.17;15.37;;;;;;;5.46;96.80;99661.81;5070993;28;20258;-76
2023/12/08 09:34:34;;;;;;;17.57;13.47;;;;;;;5.36;96.44;99660.28;5075274;28;20248;-73
2023/12/08 09:37:00;;;;;;;15.37;12.00;;;;;;;5.44;95.64;99653.22;5069571;28;20577;-73
2023/12/08 09:39:27;;;;;;;13.67;11.93;;;;;;;5.52;96.67;99650.63;5070742;28;20195;-74
2023/12/08 09:42:00;;;;;;;14.27;12.87;;;;;;;5.54;96.50;99643.41;5067240;28;20200;-72
2023/12/08 09:44:28;;;;;;;17.77;13.63;;;;;;;5.57;96.28;99639.63;5068059;28;20196;-77
2023/12/08 09:46:56;;;;;;;22.47;13.63;;;;;;;5.42;97.15;99634.16;5069633;28;20356;-75
2023/12/08 09:49:28;;;;;;;20.57;14.37;;;;;;;5.48;96.94;99633.50;5069304;28;20904;-74
2023/12/08 09:51:57;;;;;;;17.97;14.10;;;;;;;5.54;96.87;99632.88;5066075;28;20744;-74
2023/12/08 09:54:24;;;;;;;14.63;13.03;;;;;;;5.56;97.53;99630.06;5068339;28;20254;-73
2023/12/08 09:56:53;;;;;;;15.20;13.10;;;;;;;5.57;97.88;99627.25;5061344;28;20244;-77
2023/12/08 09:59:24;;;;;;;14.00;12.13;;;;;;;5.48;97.32;99630.84;5061761;28;20188;-78
2023/12/08 10:01:51;;;;;;;17.07;12.13;;;;;;;5.47;96.85;99621.31;5061354;28;20293;-71
2023/12/08 10:04:18;;;;;;;18.63;14.97;;;;;;;5.53;97.39;99618.06;5062442;28;20652;-75
2023/12/08 10:06:45;;;;;;;21.83;14.80;;;;;;;5.58;97.61;99621.03;5067678;28;20202;-74
2023/12/08 10:09:17;;;;;;;23.67;14.77;;;;;;;5.59;97.62;99617.38;5070943;28;20254;-73
2023/12/08 10:11:44;;;;;;;24.67;16.57;;;;;;;5.53;97.63;99630.38;5069229;28;20294;-72
2023/12/08 10:14:12;;;;;;;23.40;16.23;;;;;;;5.62;98.88;99618.88;5070030;28;20201;-72
2023/12/08 10:16:39;;;;;;;22.80;16.00;;;;;;;5.54;98.84;99609.16;5071435;28;20241;-73
2023/12/08 10:19:06;;;;;;;24.63;16.70;;;;;;;5.54;98.95;99617.06;5071419;28;20200;-72
2023/12/08 10:21:34;;;;;;;22.20;16.37;;;;;;;5.64;99.54;99607.19;5071740;28;20225;-71
2023/12/08 10:24:02;;;;;;;24.07;16.97;;;;;;;5.60;99.39;99587.41;5071863;28;20197;-73
2023/12/08 10:26:30;;;;;;;14.77;12.90;;;;;;;5.49;98.68;99614.09;5071542;28;20239;-73
2023/12/08 10:28:57;;;;;;;13.17;11.77;;;;;;;5.48;97.89;99612.41;5071114;28;20197;-70
2023/12/08 10:31:24;;;;;;;15.43;13.87;;;;;;;5.59;98.45;99604.22;5071539;28;20315;-69
2023/12/08 10:33:51;;;;;;;19.50;14.50;;;;;;;5.63;98.77;99608.19;5070293;28;20195;-70
2023/12/08 10:36:19;;;;;;;15.40;13.50;;;;;;;5.58;99.21;99597.31;5071168;28;20191;-73
2023/12/08 10:38:47;;;;;;;21.43;15.67;;;;;;;5.52;99.09;99597.13;5068983;28;20188;-75
2023/12/08 10:41:16;;;;;;;22.20;16.07;;;;;;;5.62;99.49;99588.09;5071303;28;20218;-71
2023/12/08 10:43:46;;;;;;;22.97;17.10;;;;;;;5.71;99.75;99587.13;5071159;28;20238;-70
2023/12/08 10:46:13;;;;;;;28.57;18.13;;;;;;;5.77;99.22;99590.91;5070411;28;20614;-71
2023/12/08 10:48:40;;;;;;;18.70;15.90;;;;;;;5.67;98.22;99579.69;5070733;28;20628;-70
2023/12/08 10:51:13;;;;;;;16.60;12.90;;;;;;;5.65;96.26;99584.31;5068841;28;20623;-70
2023/12/08 10:53:39;;;;;;;16.23;13.20;;;;;;;5.60;96.74;99578.72;5068704;28;20208;-70
2023/12/08 10:56:10;;;;;;;25.50;15.40;;;;;;;5.64;97.74;99580.03;5069463;28;20200;-68
2023/12/08 10:58:41;;;;;;;21.63;13.87;;;;;;;5.66;97.83;99573.59;5071143;28;20207;-69
2023/12/08 11:01:12;;;;;;;17.43;12.80;;;;;;;5.69;98.31;99572.47;5088442;28;20195;-70
2023/12/08 11:03:41;;;;;;;17.23;12.13;;;;;;;5.70;97.50;99574.09;5090967;28;20306;-69
2023/12/08 11:06:11;;;;;;;13.63;12.20;;;;;;;5.63;97.34;99573.09;5090674;28;20252;-71
2023/12/08 11:08:42;;;;;;;13.73;12.37;;;;;;;5.54;98.09;99579.34;5090653;28;20195;-73
2023/12/08 11:11:11;;;;;;;17.40;13.53;;;;;;;5.61;97.70;99577.72;5086170;28;20225;-71
2023/12/08 11:13:40;;;;;;;17.37;13.07;;;;;;;5.65;97.08;99571.13;5069661;28;20626;-72
2023/12/08 11:16:19;;;;;;;18.23;13.17;;;;;;;5.61;97.09;99581.16;5070219;28;20229;-72
2023/12/08 11:18:47;;;;;;;16.17;12.57;;;;;;;5.65;96.91;99577.22;5069674;28;20709;-71
2023/12/08 11:21:14;;;;;;;12.47;11.27;;;;;;;5.52;96.53;99571.59;5070153;28;20745;-70
2023/12/08 11:23:42;;;;;;;17.67;12.40;;;;;;;5.59;97.48;99577.03;5070537;28;20253;-70
2023/12/08 11:26:16;;;;;;;12.93;11.63;;;;;;;5.51;97.45;99580.50;5071995;28;20187;-70
2023/12/08 11:28:53;;;;;;;14.33;11.63;;;;;;;5.47;97.21;99568.63;5071693;28;20189;-70
2023/12/08 11:31:27;;;;;;;16.20;13.60;;;;;;;5.48;97.25;99580.81;5072552;28;20656;-70
2023/12/08 11:33:59;;;;;;;16.47;13.10;;;;;;;5.36;98.29;99576.81;5070885;28;20607;-68